Time;durP1;ratioP1;P1;durP2;ratioP2;P2;SDS_P1;SDS_P2;PMS_P1;PMS_P2;Temp;Humidity;BMP_temperature;BMP_pressure;BME280_temperature;BME280_humidity;BME280_pressure;Samples;Min_cycle;Max_cycle;Signal;HPM_P1;HPM_P2
2021/12/02 00:02:03;;;;;;;;;;;;;;;22.48;25.73;97453.19;5076130;28;1008;-76
2021/12/02 00:04:31;;;;;;;;;;;;;;;22.32;25.90;97460.66;5077620;28;954;-76
2021/12/02 00:06:56;;;;;;;;;;;;;;;22.71;25.91;97461.22;5078425;28;1446;-76
2021/12/02 00:09:21;;;;;;;;;;;;;;;22.70;25.54;97453.97;5078406;28;893;-76
2021/12/02 00:11:47;;;;;;;;;;;;;;;22.87;25.45;97451.66;5078793;28;915;-76
2021/12/02 00:14:14;;;;;;;;;;;;;;;22.55;25.26;97453.72;5077366;28;934;-76
2021/12/02 00:16:51;;;;;;;;;;;;;;;22.48;25.58;97453.19;5078367;28;1454;-76
2021/12/02 00:22:02;;;;;;;;;;;;;;;22.72;25.32;97450.66;5078654;28;1071;-76
2021/12/02 00:24:28;;;;;;;;;;;;;;;22.78;25.28;97449.56;5076979;28;870;-76
2021/12/02 00:26:54;;;;;;;;;;;;;;;22.61;25.54;97446.19;5078378;28;1533;-76
2021/12/02 00:29:20;;;;;;;;;;;;;;;22.54;25.36;97451.38;5077153;28;957;-76
2021/12/02 00:31:47;;;;;;;;;;;;;;;22.28;25.74;97456.41;5078437;28;918;-76
2021/12/02 00:34:13;;;;;;;;;;;;;;;22.47;26.01;97445.97;5103219;28;1511;-76
2021/12/02 00:36:38;;;;;;;;;;;;;;;22.70;25.38;97442.63;5058119;28;949;-76
2021/12/02 00:39:07;;;;;;;;;;;;;;;22.80;25.43;97447.06;5056990;28;1902;-76
2021/12/02 00:41:34;;;;;;;;;;;;;;;22.33;25.79;97448.09;5058220;28;920;-76
2021/12/02 00:44:00;;;;;;;;;;;;;;;22.17;25.77;97451.13;5061314;28;1522;-76
2021/12/02 00:46:27;;;;;;;;;;;;;;;22.23;26.33;97454.97;5078117;28;879;-76
2021/12/02 00:48:53;;;;;;;;;;;;;;;22.73;25.54;97457.91;5076192;28;1517;-76
2021/12/02 00:51:19;;;;;;;;;;;;;;;22.79;25.50;97445.47;5078284;28;971;-76
2021/12/02 00:53:46;;;;;;;;;;;;;;;22.59;25.64;97453.59;5076078;28;1534;-76
2021/12/02 00:56:15;;;;;;;;;;;;;;;22.40;25.52;97449.09;5078567;28;919;-76
2021/12/02 00:58:43;;;;;;;;;;;;;;;22.26;26.01;97459.69;5108575;28;1977;-76
2021/12/02 01:01:10;;;;;;;;;;;;;;;22.40;26.38;97451.91;5110734;28;1119;-76
2021/12/02 01:03:36;;;;;;;;;;;;;;;22.76;25.53;97457.75;5076429;28;1469;-76
2021/12/02 01:06:02;;;;;;;;;;;;;;;22.82;25.30;97446.59;5076313;28;976;-76
2021/12/02 01:08:28;;;;;;;;;;;;;;;22.86;25.44;97444.41;5075947;28;1470;-76
2021/12/02 01:10:53;;;;;;;;;;;;;;;22.58;25.50;97429.31;5076518;28;1381;-76
2021/12/02 01:13:19;;;;;;;;;;;;;;;22.35;25.65;97433.47;5076696;28;917;-76
2021/12/02 01:15:45;;;;;;;;;;;;;;;22.31;26.00;97432.81;5076883;28;937;-76
2021/12/02 01:18:10;;;;;;;;;;;;;;;22.25;25.86;97432.63;5076369;28;1910;-76
2021/12/02 01:20:35;;;;;;;;;;;;;;;22.64;25.47;97418.97;5078071;28;1011;-76
2021/12/02 01:23:01;;;;;;;;;;;;;;;22.80;25.18;97418.72;5076899;28;904;-76
2021/12/02 01:25:27;;;;;;;;;;;;;;;22.59;25.61;97419.56;5109834;28;1095;-76
2021/12/02 01:27:52;;;;;;;;;;;;;;;22.25;26.14;97407.09;5076869;28;1548;-76
2021/12/02 01:30:18;;;;;;;;;;;;;;;22.08;26.01;97408.56;5077456;28;935;-76
2021/12/02 01:32:43;;;;;;;;;;;;;;;22.43;25.82;97405.63;5077355;28;1213;-76
2021/12/02 01:35:09;;;;;;;;;;;;;;;22.79;25.12;97405.75;5074653;28;1108;-76
2021/12/02 01:37:34;;;;;;;;;;;;;;;22.96;25.07;97402.72;5058087;28;1563;-75
2021/12/02 01:40:00;;;;;;;;;;;;;;;22.58;25.21;97392.44;5074467;28;1984;-76
2021/12/02 01:42:28;;;;;;;;;;;;;;;22.50;25.39;97399.69;5094540;28;931;-76
2021/12/02 01:44:55;;;;;;;;;;;;;;;22.42;25.50;97404.81;5078089;28;1127;-76
2021/12/02 01:47:21;;;;;;;;;;;;;;;22.49;26.17;97400.94;5079129;28;1561;-76
2021/12/02 01:49:47;;;;;;;;;;;;;;;22.81;25.37;97396.81;5077807;28;971;-76
2021/12/02 01:52:13;;;;;;;;;;;;;;;22.76;25.10;97401.03;5061665;28;1460;-76
2021/12/02 01:54:42;;;;;;;;;;;;;;;22.41;25.62;97397.59;5060861;28;1025;-76
2021/12/02 01:57:08;;;;;;;;;;;;;;;22.18;25.82;97396.06;5079173;28;921;-76
2021/12/02 01:59:35;;;;;;;;;;;;;;;22.11;26.25;97384.97;5077117;28;1898;-76
2021/12/02 02:02:01;;;;;;;;;;;;;;;22.55;25.84;97390.56;5061833;28;966;-76
2021/12/02 02:04:27;;;;;;;;;;;;;;;22.80;25.52;97401.69;5077498;28;968;-76
2021/12/02 02:06:59;;;;;;;;;;;;;;;22.62;25.43;97395.94;5080203;28;956;-77
2021/12/02 02:09:25;;;;;;;;;;;;;;;22.08;25.93;97403.69;5079335;28;1434;-76
2021/12/02 02:11:51;;;;;;;;;;;;;;;22.29;25.95;97402.09;5113815;28;911;-76
2021/12/02 02:14:17;;;;;;;;;;;;;;;22.35;26.20;97405.91;5080226;28;913;-76
2021/12/02 02:16:42;;;;;;;;;;;;;;;22.84;25.36;97396.63;5112642;28;977;-76
2021/12/02 02:19:11;;;;;;;;;;;;;;;22.88;25.27;97400.16;5079223;28;1983;-76
2021/12/02 02:21:37;;;;;;;;;;;;;;;22.38;25.57;97397.72;5080438;28;976;-76
2021/12/02 02:24:03;;;;;;;;;;;;;;;22.27;25.96;97393.25;5079012;28;912;-76
2021/12/02 02:26:33;;;;;;;;;;;;;;;22.11;26.21;97390.66;5081252;28;904;-76
2021/12/02 02:28:59;;;;;;;;;;;;;;;22.51;25.61;97401.25;5078883;28;1517;-76
2021/12/02 02:31:24;;;;;;;;;;;;;;;22.73;25.52;97401.97;5080968;28;935;-76
2021/12/02 02:33:50;;;;;;;;;;;;;;;22.63;25.33;97409.66;5078946;28;874;-76
2021/12/02 02:36:17;;;;;;;;;;;;;;;22.50;25.48;97408.97;5081282;28;909;-75
2021/12/02 02:38:44;;;;;;;;;;;;;;;22.25;25.62;97400.66;5078650;28;1913;-76
2021/12/02 02:41:11;;;;;;;;;;;;;;;22.64;25.71;97399.13;5119477;28;999;-76
2021/12/02 02:43:36;;;;;;;;;;;;;;;22.73;25.38;97410.47;5117073;28;951;-76
2021/12/02 02:46:02;;;;;;;;;;;;;;;22.66;25.45;97413.59;5119079;28;957;-76
2021/12/02 02:48:31;;;;;;;;;;;;;;;22.27;25.78;97415.94;5107296;28;1493;-76
2021/12/02 02:50:56;;;;;;;;;;;;;;;22.34;25.63;97415.66;5097992;28;953;-76
2021/12/02 02:53:22;;;;;;;;;;;;;;;22.60;25.76;97413.44;5096292;28;960;-76
2021/12/02 02:56:10;;;;;;;;;;;;;;;22.79;25.30;97416.31;5097556;28;1018;-76
2021/12/02 03:06:31;;;;;;;;;;;;;;;22.35;26.10;97393.78;5119177;28;1029;-76
2021/12/02 03:09:02;;;;;;;;;;;;;;;22.62;25.41;97390.28;5063105;28;1646;-76
2021/12/02 03:11:36;;;;;;;;;;;;;;;22.76;25.18;97388.91;5037100;28;1007;-76
2021/12/02 03:14:09;;;;;;;;;;;;;;;22.49;25.37;97392.44;5036423;28;957;-76
2021/12/02 03:16:44;;;;;;;;;;;;;;;22.27;25.60;97376.25;5053164;28;956;-76
2021/12/02 03:19:10;;;;;;;;;;;;;;;22.31;26.21;97388.25;5050861;28;1910;-76
2021/12/02 03:21:36;;;;;;;;;;;;;;;22.73;25.18;97406.84;5056701;28;1687;-76
2021/12/02 03:24:01;;;;;;;;;;;;;;;22.68;25.35;97408.25;5055806;28;1146;-76
2021/12/02 03:26:27;;;;;;;;;;;;;;;22.31;25.55;97402.41;5056832;28;911;-76
2021/12/02 03:28:53;;;;;;;;;;;;;;;22.26;25.62;97390.88;5074202;28;1596;-76
2021/12/02 03:31:18;;;;;;;;;;;;;;;22.41;26.15;97391.13;5077392;28;946;-76
2021/12/02 03:33:44;;;;;;;;;;;;;;;22.58;25.71;97383.94;5075104;28;951;-76
2021/12/02 03:36:10;;;;;;;;;;;;;;;22.68;25.26;97394.06;5076769;28;952;-76
2021/12/02 03:38:35;;;;;;;;;;;;;;;22.11;25.75;97387.81;5067012;28;1898;-75
2021/12/02 03:41:01;;;;;;;;;;;;;;;22.16;25.76;97389.25;5076772;28;1084;-76
2021/12/02 03:43:27;;;;;;;;;;;;;;;22.38;26.13;97375.03;5058558;28;957;-76
2021/12/02 03:45:53;;;;;;;;;;;;;;;22.72;25.19;97360.69;5077167;28;1050;-76
2021/12/02 03:48:18;;;;;;;;;;;;;;;22.94;25.08;97368.34;5082025;28;1493;-76
2021/12/02 03:50:44;;;;;;;;;;;;;;;22.50;25.59;97379.84;5097382;28;980;-76
2021/12/02 03:53:09;;;;;;;;;;;;;;;22.27;25.85;97370.59;5095448;28;953;-76
2021/12/02 03:55:35;;;;;;;;;;;;;;;22.13;25.98;97370.38;5096339;28;969;-76
2021/12/02 03:58:00;;;;;;;;;;;;;;;22.54;26.06;97372.78;5094993;28;1371;-76
2021/12/02 04:00:26;;;;;;;;;;;;;;;22.82;25.39;97375.69;5059568;28;2261;-76
2021/12/02 04:02:51;;;;;;;;;;;;;;;22.19;25.29;97255.16;5078223;28;881;-76
2021/12/02 04:05:17;;;;;;;;;;;;;;;22.51;25.64;97372.91;5077128;28;897;-76
2021/12/02 04:07:43;;;;;;;;;;;;;;;22.20;25.81;97373.72;5078110;28;1470;-76
2021/12/02 04:10:08;;;;;;;;;;;;;;;22.06;26.25;97375.00;5077713;28;975;-76
2021/12/02 04:12:48;;;;;;;;;;;;;;;22.56;25.92;97370.25;5076418;28;938;-76
2021/12/02 04:15:21;;;;;;;;;;;;;;;22.65;25.73;97372.34;5075492;28;1061;-76
2021/12/02 04:17:48;;;;;;;;;;;;;;;22.53;25.33;97374.00;5077787;28;1526;-76
2021/12/02 04:20:14;;;;;;;;;;;;;;;22.32;25.81;97361.47;5077543;28;1981;-76
2021/12/02 04:22:40;;;;;;;;;;;;;;;22.28;25.80;97363.69;5078606;28;929;-76
2021/12/02 04:25:06;;;;;;;;;;;;;;;22.50;25.94;97366.44;5077670;28;912;-76
2021/12/02 04:27:31;;;;;;;;;;;;;;;22.91;25.39;97366.44;5077950;28;912;-76
2021/12/02 04:29:56;;;;;;;;;;;;;;;22.70;25.41;97363.22;5077476;28;1644;-76
2021/12/02 04:32:22;;;;;;;;;;;;;;;22.41;25.51;97368.44;5078491;28;1767;-76
2021/12/02 04:34:47;;;;;;;;;;;;;;;22.14;25.77;97364.22;5077026;28;1462;-76
2021/12/02 04:37:13;;;;;;;;;;;;;;;22.40;26.02;97364.03;5078907;28;863;-76
2021/12/02 04:39:38;;;;;;;;;;;;;;;22.66;25.81;97365.41;5076982;28;1980;-76
2021/12/02 04:42:04;;;;;;;;;;;;;;;22.81;25.48;97369.22;5078444;28;901;-76
2021/12/02 04:44:29;;;;;;;;;;;;;;;22.53;25.67;97376.06;5076841;28;1549;-76
2021/12/02 04:46:55;;;;;;;;;;;;;;;22.30;25.58;97369.66;5078564;28;961;-76
2021/12/02 04:49:20;;;;;;;;;;;;;;;22.41;25.57;97368.44;5115082;28;955;-76
2021/12/02 04:51:46;;;;;;;;;;;;;;;22.41;25.84;97362.78;5099264;28;1147;-76
2021/12/02 04:54:11;;;;;;;;;;;;;;;22.69;25.26;97355.97;5114237;28;1517;-76
2021/12/02 04:56:37;;;;;;;;;;;;;;;22.71;25.26;97353.44;5116035;28;967;-76
2021/12/02 04:59:03;;;;;;;;;;;;;;;22.70;25.14;97357.53;5114540;28;1906;-76
2021/12/02 05:01:28;;;;;;;;;;;;;;;22.28;26.00;97358.00;5116791;28;1019;-76
2021/12/02 05:03:53;;;;;;;;;;;;;;;22.05;26.26;97352.81;5114191;28;1869;-76
2021/12/02 05:06:19;;;;;;;;;;;;;;;22.56;25.88;97353.22;5075900;28;1008;-77
2021/12/02 05:08:44;;;;;;;;;;;;;;;22.74;25.63;97355.34;5073954;28;917;-76
2021/12/02 05:11:10;;;;;;;;;;;;;;;22.67;25.19;97358.47;5076166;28;910;-76
2021/12/02 05:13:35;;;;;;;;;;;;;;;22.45;25.60;97357.75;5074185;28;995;-76
2021/12/02 05:16:01;;;;;;;;;;;;;;;21.99;26.14;97354.66;5078252;28;1013;-76
2021/12/02 05:18:29;;;;;;;;;;;;;;;22.22;26.41;97356.22;5045508;28;1902;-77
2021/12/02 05:20:59;;;;;;;;;;;;;;;22.73;25.36;97344.47;5065168;28;1304;-78
2021/12/02 05:23:25;;;;;;;;;;;;;;;22.87;25.22;97356.00;5058034;28;971;-78
2021/12/02 05:25:50;;;;;;;;;;;;;;;22.52;25.64;97348.97;5059693;28;961;-78
2021/12/02 05:28:17;;;;;;;;;;;;;;;22.11;26.32;97359.47;5074639;28;968;-77
2021/12/02 05:30:43;;;;;;;;;;;;;;;22.29;25.92;97353.91;5059107;28;934;-78
2021/12/02 05:33:09;;;;;;;;;;;;;;;22.53;25.73;97347.69;5058303;28;1024;-78
2021/12/02 05:35:34;;;;;;;;;;;;;;;22.79;25.61;97351.09;5059126;28;961;-78
2021/12/02 05:38:00;;;;;;;;;;;;;;;22.59;25.42;97345.84;5075853;28;1016;-78
2021/12/02 05:40:25;;;;;;;;;;;;;;;22.27;25.71;97356.41;5081381;28;1914;-75
2021/12/02 05:42:50;;;;;;;;;;;;;;;22.28;25.75;97358.00;5081324;28;1052;-75
2021/12/02 05:45:16;;;;;;;;;;;;;;;22.69;25.52;97355.97;5113413;28;882;-75
2021/12/02 05:47:41;;;;;;;;;;;;;;;22.77;25.25;97357.25;5081117;28;1245;-76
2021/12/02 05:50:07;;;;;;;;;;;;;;;22.47;25.49;97349.56;5080328;28;909;-76
2021/12/02 05:52:32;;;;;;;;;;;;;;;22.30;26.01;97347.00;5081136;28;960;-76
2021/12/02 05:54:58;;;;;;;;;;;;;;;22.13;25.85;97353.38;5080255;28;901;-75
2021/12/02 05:57:24;;;;;;;;;;;;;;;22.55;26.05;97362.22;5081338;28;1335;-75
2021/12/02 05:59:49;;;;;;;;;;;;;;;22.71;25.39;97359.13;5079992;28;2009;-75
2021/12/02 06:02:15;;;;;;;;;;;;;;;22.83;25.43;97366.69;5081412;28;963;-75
2021/12/02 06:04:42;;;;;;;;;;;;;;;22.47;25.73;97375.09;5079643;28;907;-76
2021/12/02 06:07:07;;;;;;;;;;;;;;;22.41;25.59;97365.63;5080562;28;938;-76
2021/12/02 06:09:33;;;;;;;;;;;;;;;22.36;25.98;97364.97;5080041;28;942;-76
2021/12/02 06:11:58;;;;;;;;;;;;;;;22.74;25.71;97369.53;5081569;28;889;-76
2021/12/02 06:14:24;;;;;;;;;;;;;;;22.70;25.71;97365.25;5080001;28;992;-75
2021/12/02 06:16:49;;;;;;;;;;;;;;;22.41;25.69;97362.78;5080683;28;1132;-75
2021/12/02 06:19:15;;;;;;;;;;;;;;;22.09;26.20;97371.25;5079750;28;1902;-75
2021/12/02 06:21:40;;;;;;;;;;;;;;;22.29;25.94;97370.13;5080741;28;926;-75
2021/12/02 06:24:06;;;;;;;;;;;;;;;22.50;25.95;97374.16;5079640;28;962;-76
2021/12/02 06:26:32;;;;;;;;;;;;;;;22.77;25.53;97373.47;5080773;28;934;-76
2021/12/02 06:28:57;;;;;;;;;;;;;;;22.68;25.40;97371.38;5079061;28;960;-75
2021/12/02 06:31:24;;;;;;;;;;;;;;;22.28;26.04;97374.22;5081421;28;891;-75
2021/12/02 06:33:49;;;;;;;;;;;;;;;22.29;25.64;97367.31;5079749;28;999;-75
2021/12/02 06:36:15;;;;;;;;;;;;;;;22.33;26.07;97374.41;5081040;28;882;-76
2021/12/02 06:38:41;;;;;;;;;;;;;;;22.63;25.87;97374.84;5078704;28;1962;-75
2021/12/02 06:41:07;;;;;;;;;;;;;;;22.69;25.55;97372.16;5080917;28;865;-76
2021/12/02 06:43:32;;;;;;;;;;;;;;;22.60;25.21;97381.44;5116504;28;924;-76
2021/12/02 06:45:58;;;;;;;;;;;;;;;22.21;25.77;97369.63;5119258;28;944;-75
2021/12/02 06:48:23;;;;;;;;;;;;;;;22.46;25.69;97377.13;5117108;28;1044;-75
2021/12/02 06:50:49;;;;;;;;;;;;;;;22.73;25.34;97379.28;5119091;28;958;-76
2021/12/02 06:53:16;;;;;;;;;;;;;;;22.85;25.13;97372.72;5116909;28;944;-75
2021/12/02 06:55:42;;;;;;;;;;;;;;;22.44;25.46;97373.19;5101611;28;965;-75
2021/12/02 06:58:08;;;;;;;;;;;;;;;22.39;25.63;97376.66;5114681;28;935;-76
2021/12/02 07:00:33;;;;;;;;;;;;;;;22.17;25.97;97383.13;5118599;28;1898;-74
2021/12/02 07:03:01;;;;;;;;;;;;;;;22.58;25.97;97389.63;5083234;28;997;-76
2021/12/02 07:05:27;;;;;;;;;;;;;;;22.92;25.29;97385.03;5118141;28;902;-75
2021/12/02 07:07:53;;;;;;;;;;;;;;;22.77;25.26;97377.09;5117413;28;908;-76
2021/12/02 07:10:21;;;;;;;;;;;;;;;22.35;25.92;97380.41;5117360;28;977;-75
2021/12/02 07:12:49;;;;;;;;;;;;;;;22.30;25.88;97378.16;5117458;28;954;-76
2021/12/02 07:15:17;;;;;;;;;;;;;;;22.34;25.90;97381.66;5086867;28;1145;-75
2021/12/02 07:17:45;;;;;;;;;;;;;;;22.74;25.60;97380.88;5078994;28;930;-76
2021/12/02 07:20:10;;;;;;;;;;;;;;;22.83;25.18;97378.03;5078578;28;1917;-76
2021/12/02 07:22:38;;;;;;;;;;;;;;;22.74;25.38;97375.22;5079453;28;951;-76
2021/12/02 07:25:04;;;;;;;;;;;;;;;22.41;25.73;97374.91;5078467;28;950;-75
2021/12/02 07:27:30;;;;;;;;;;;;;;;22.34;25.98;97370.31;5079078;28;987;-76
2021/12/02 07:29:55;;;;;;;;;;;;;;;22.68;25.43;97370.59;5096280;28;1248;-76
2021/12/02 07:32:21;;;;;;;;;;;;;;;22.87;25.41;97372.22;5076893;28;939;-75
2021/12/02 07:34:49;;;;;;;;;;;;;;;22.91;25.44;97367.25;5059127;28;1493;-75
2021/12/02 07:37:14;;;;;;;;;;;;;;;22.74;25.48;97380.06;5060145;28;1060;-75
2021/12/02 07:39:40;;;;;;;;;;;;;;;22.41;25.68;97374.13;5075069;28;1969;-76
2021/12/02 07:42:06;;;;;;;;;;;;;;;22.44;26.00;97370.38;5076627;28;944;-76
2021/12/02 07:44:33;;;;;;;;;;;;;;;22.47;25.71;97373.03;5075509;28;888;-76
2021/12/02 07:46:58;;;;;;;;;;;;;;;22.49;26.17;97369.75;5076388;28;925;-76
2021/12/02 07:49:24;;;;;;;;;;;;;;;22.96;25.21;97369.47;5075121;28;1414;-76
2021/12/02 07:51:49;;;;;;;;;;;;;;;22.82;25.18;97373.63;5076402;28;1181;-77
2021/12/02 07:54:16;;;;;;;;;;;;;;;22.47;25.50;97377.91;5074981;28;1410;-76
2021/12/02 07:56:41;;;;;;;;;;;;;;;22.38;25.85;97380.72;5016253;28;1405;-76
2021/12/02 07:59:09;;;;;;;;;;;;;;;22.15;26.14;97379.19;4959483;28;1902;-76
2021/12/02 08:01:35;;;;;;;;;;;;;;;22.62;25.68;97373.25;4962494;28;1350;-76
2021/12/02 08:04:00;;;;;;;;;;;;;;;22.78;25.56;97375.03;4956541;28;1358;-76
2021/12/02 08:06:26;;;;;;;;;;;;;;;22.59;25.45;97379.88;4957672;29;1255;-77
2021/12/02 08:08:52;;;;;;;;;;;;;;;22.37;26.02;97379.91;4952276;29;1305;-76
2021/12/02 08:11:17;;;;;;;;;;;;;;;22.14;26.30;97378.41;4920202;29;1288;-76
2021/12/02 08:13:43;;;;;;;;;;;;;;;22.47;26.12;97384.38;4917520;29;1223;-77
2021/12/02 08:16:08;;;;;;;;;;;;;;;22.83;25.50;97380.88;4920133;29;1312;-76
2021/12/02 08:18:34;;;;;;;;;;;;;;;22.52;25.78;97377.31;4901925;29;1907;-77
2021/12/02 08:20:59;;;;;;;;;;;;;;;22.34;25.97;97380.88;4919456;29;1260;-76
2021/12/02 08:23:25;;;;;;;;;;;;;;;22.18;26.19;97378.28;4918141;29;1318;-77
2021/12/02 08:25:51;;;;;;;;;;;;;;;22.55;26.02;97373.56;4900968;29;1330;-77
2021/12/02 08:28:16;;;;;;;;;;;;;;;22.84;25.44;97362.59;4941391;29;1311;-76
2021/12/02 08:30:41;;;;;;;;;;;;;;;22.68;25.62;97360.03;4958151;29;1192;-76
2021/12/02 08:33:08;;;;;;;;;;;;;;;22.36;25.63;97367.78;4956473;29;1061;-76
2021/12/02 08:35:34;;;;;;;;;;;;;;;22.41;25.49;97368.44;4962623;28;1242;-76
2021/12/02 08:38:04;;;;;;;;;;;;;;;22.27;25.96;97364.91;4990372;28;1286;-76
2021/12/02 08:40:32;;;;;;;;;;;;;;;22.76;25.42;97354.88;4996234;28;1906;-77
2021/12/02 08:42:58;;;;;;;;;;;;;;;23.04;25.17;97364.25;4996047;28;994;-76
2021/12/02 08:45:23;;;;;;;;;;;;;;;22.66;25.25;97345.56;4995995;28;945;-77
2021/12/02 08:47:49;;;;;;;;;;;;;;;22.42;25.53;97341.69;4995940;28;958;-76
2021/12/02 08:50:15;;;;;;;;;;;;;;;22.29;25.80;97338.97;4995217;28;1034;-76
2021/12/02 08:52:40;;;;;;;;;;;;;;;22.51;26.08;97339.66;4996040;28;977;-76
2021/12/02 08:55:06;;;;;;;;;;;;;;;22.55;25.91;97334.66;5008852;28;1242;-76
2021/12/02 08:57:32;;;;;;;;;;;;;;;22.81;25.50;97329.53;5046774;28;1045;-77
2021/12/02 08:59:57;;;;;;;;;;;;;;;22.63;25.35;97329.47;5054458;28;1902;-76
2021/12/02 09:02:23;;;;;;;;;;;;;;;22.30;25.94;97329.19;5055594;28;1174;-77
2021/12/02 09:04:48;;;;;;;;;;;;;;;22.09;25.92;97320.25;5054721;28;868;-77
2021/12/02 09:07:15;;;;;;;;;;;;;;;22.44;25.92;97322.97;5056474;28;1013;-76
2021/12/02 09:09:40;;;;;;;;;;;;;;;22.65;25.74;97321.28;5066288;28;967;-77
2021/12/02 09:12:07;;;;;;;;;;;;;;;22.58;25.62;97316.69;5059752;28;954;-76
2021/12/02 09:14:32;;;;;;;;;;;;;;;22.40;25.61;97310.19;5074759;28;923;-76
2021/12/02 09:16:58;;;;;;;;;;;;;;;22.35;25.75;97315.22;5075732;28;949;-77
2021/12/02 09:19:23;;;;;;;;;;;;;;;22.71;25.73;97313.75;5074556;28;1975;-76
2021/12/02 09:21:49;;;;;;;;;;;;;;;23.04;25.10;97313.19;5075461;28;944;-77
2021/12/02 09:24:18;;;;;;;;;;;;;;;22.74;25.13;97309.97;5074746;28;1026;-76
2021/12/02 09:26:47;;;;;;;;;;;;;;;22.57;25.69;97300.94;5075145;28;1054;-77
2021/12/02 09:29:13;;;;;;;;;;;;;;;22.41;25.52;97300.41;5034293;28;1198;-76
2021/12/02 09:31:38;;;;;;;;;;;;;;;22.43;25.90;97300.72;5029721;28;1218;-76
2021/12/02 09:34:04;;;;;;;;;;;;;;;22.74;25.94;97290.13;5017217;28;1103;-76
2021/12/02 09:36:29;;;;;;;;;;;;;;;22.82;25.53;97291.38;5035396;28;1256;-76
2021/12/02 09:38:55;;;;;;;;;;;;;;;22.39;25.90;97278.22;5033548;28;1973;-77
2021/12/02 09:41:20;;;;;;;;;;;;;;;22.29;26.09;97287.94;5051238;28;1217;-76
2021/12/02 09:43:46;;;;;;;;;;;;;;;22.01;26.51;97282.13;5053301;28;1204;-77
2021/12/02 09:46:11;;;;;;;;;;;;;;;22.49;26.20;97268.50;5055820;28;1253;-77
2021/12/02 09:48:37;;;;;;;;;;;;;;;22.66;25.75;97254.81;5053194;28;1313;-76
2021/12/02 09:51:11;;;;;;;;;;;;;;;22.59;25.63;97266.47;5055086;28;1321;-76
2021/12/02 09:53:52;;;;;;;;;;;;;;;22.34;25.96;97273.94;5052860;28;1340;-77
2021/12/02 09:56:25;;;;;;;;;;;;;;;22.47;25.39;97264.53;5007303;28;1211;-77
2021/12/02 09:58:52;;;;;;;;;;;;;;;22.33;26.50;97249.72;5053143;28;1918;-76
2021/12/02 10:01:20;;;;;;;;;;;;;;;22.84;25.62;97249.13;4981802;28;1164;-77
2021/12/02 10:03:49;;;;;;;;;;;;;;;22.76;25.39;97247.88;4995751;28;983;-77
2021/12/02 10:06:20;;;;;;;;;;;;;;;22.28;25.95;97253.16;4960672;29;963;-76
2021/12/02 10:09:04;;;;;;;;;;;;;;;22.30;26.04;97250.63;4958710;29;1069;-76
2021/12/02 10:12:01;;;;;;;;;;;;;;;22.52;26.14;97255.41;4960289;29;970;-76
2021/12/02 10:14:34;;;;;;;;;;;;;;;22.89;25.40;97256.28;4912075;29;2064;-76
2021/12/02 10:17:15;;;;;;;;;;;;;;;22.66;25.56;97257.66;4922351;29;1201;-77
2021/12/02 10:20:10;;;;;;;;;;;;;;;22.34;25.78;97244.81;4864579;29;1911;-77
2021/12/02 10:22:36;;;;;;;;;;;;;;;22.27;25.82;97251.56;4865120;29;991;-77
2021/12/02 10:25:01;;;;;;;;;;;;;;;22.47;26.33;97236.19;4850717;29;1124;-76
2021/12/02 10:27:27;;;;;;;;;;;;;;;22.68;25.85;97240.16;4846637;29;1249;-76
2021/12/02 10:29:52;;;;;;;;;;;;;;;22.70;25.75;97232.75;4845541;29;1282;-76
2021/12/02 10:32:21;;;;;;;;;;;;;;;22.25;26.04;97220.06;4846695;29;1313;-76
2021/12/02 10:34:54;;;;;;;;;;;;;;;22.38;25.88;97222.75;4845390;29;1428;-77
2021/12/02 10:37:20;;;;;;;;;;;;;;;22.15;26.26;97215.63;4818502;29;1262;-77
2021/12/02 10:40:15;;;;;;;;;;;;;;;22.40;26.49;97213.81;4854862;29;1903;-76
2021/12/02 10:42:42;;;;;;;;;;;;;;;22.59;26.09;97206.91;4851522;29;1254;-76
2021/12/02 10:45:21;;;;;;;;;;;;;;;22.64;25.76;97203.47;4872196;29;1471;-77
2021/12/02 10:47:50;;;;;;;;;;;;;;;22.27;26.30;97206.22;4884799;29;997;-77
2021/12/02 10:50:15;;;;;;;;;;;;;;;21.87;26.82;97200.56;4894702;29;1026;-77
2021/12/02 10:52:41;;;;;;;;;;;;;;;22.40;26.55;97196.81;4941032;29;1035;-76
2021/12/02 10:55:07;;;;;;;;;;;;;;;22.74;25.93;97195.72;4939694;29;976;-77
2021/12/02 10:57:34;;;;;;;;;;;;;;;22.91;25.66;97199.09;4929336;29;970;-76
2021/12/02 11:00:00;;;;;;;;;;;;;;;22.57;25.84;97206.59;4933755;29;1899;-77
2021/12/02 11:02:26;;;;;;;;;;;;;;;22.35;25.93;97204.66;4940996;29;921;-77
2021/12/02 11:04:53;;;;;;;;;;;;;;;22.21;26.24;97208.09;4979786;28;1111;-76
2021/12/02 11:07:26;;;;;;;;;;;;;;;22.22;26.27;97204.00;4997855;28;2072;-76
2021/12/02 11:09:52;;;;;;;;;;;;;;;22.82;25.54;97202.66;4998447;28;1297;-76
2021/12/02 11:12:21;;;;;;;;;;;;;;;22.81;25.37;97201.09;5017405;28;1296;-77
2021/12/02 11:14:52;;;;;;;;;;;;;;;22.41;25.90;97201.22;5015937;28;1285;-76
2021/12/02 11:17:18;;;;;;;;;;;;;;;22.34;26.27;97205.94;5016684;28;1217;-76
2021/12/02 11:19:44;;;;;;;;;;;;;;;22.33;26.19;97198.69;4971483;28;1969;-77
2021/12/02 11:22:10;;;;;;;;;;;;;;;22.40;26.10;97191.13;4978056;28;1261;-77
2021/12/02 11:24:36;;;;;;;;;;;;;;;22.61;26.15;97187.38;4977103;28;1264;-77
2021/12/02 11:27:12;;;;;;;;;;;;;;;22.79;25.89;97187.38;4978364;28;1353;-76
2021/12/02 11:29:57;;;;;;;;;;;;;;;22.81;25.65;97172.75;4976835;28;1217;-76
2021/12/02 11:32:36;;;;;;;;;;;;;;;22.32;26.03;97163.09;4994217;28;1226;-76
2021/12/02 11:35:12;;;;;;;;;;;;;;;22.13;26.44;97160.72;5062210;28;1009;-76
2021/12/02 11:37:38;;;;;;;;;;;;;;;22.53;26.21;97171.94;5075543;28;1364;-76
2021/12/02 11:40:05;;;;;;;;;;;;;;;22.77;25.97;97164.38;5116047;28;1906;-76
2021/12/02 11:42:30;;;;;;;;;;;;;;;22.81;25.49;97162.19;5117829;28;1272;-77
2021/12/02 11:44:56;;;;;;;;;;;;;;;22.46;26.01;97172.25;5082199;28;1425;-76
2021/12/02 11:47:22;;;;;;;;;;;;;;;21.93;26.53;97180.94;5117474;28;1291;-76
2021/12/02 11:49:47;;;;;;;;;;;;;;;22.18;26.82;97177.88;5116040;28;1286;-77
2021/12/02 11:52:13;;;;;;;;;;;;;;;22.69;26.06;97177.31;5066138;28;1343;-76
2021/12/02 11:54:42;;;;;;;;;;;;;;;22.94;25.53;97155.56;5047438;28;1224;-76
2021/12/02 11:57:07;;;;;;;;;;;;;;;22.50;25.58;97172.88;5029241;28;1308;-76
2021/12/02 11:59:33;;;;;;;;;;;;;;;22.43;25.86;97164.66;5032054;28;1902;-77
2021/12/02 12:01:59;;;;;;;;;;;;;;;22.52;25.88;97156.19;5037337;28;971;-77
2021/12/02 12:04:24;;;;;;;;;;;;;;;22.78;25.71;97143.25;5055163;28;908;-76
2021/12/02 12:06:53;;;;;;;;;;;;;;;22.81;25.47;97142.31;5057352;28;949;-76
2021/12/02 12:09:20;;;;;;;;;;;;;;;22.55;25.96;97141.06;5055489;28;907;-77
2021/12/02 12:11:49;;;;;;;;;;;;;;;22.06;26.33;97144.75;5036595;28;1159;-76
2021/12/02 12:14:19;;;;;;;;;;;;;;;22.02;26.40;97144.09;5035083;28;971;-76
2021/12/02 12:16:47;;;;;;;;;;;;;;;22.50;26.26;97150.22;5020673;28;987;-77
2021/12/02 12:19:30;;;;;;;;;;;;;;;22.69;25.85;97163.13;5015329;28;1911;-77
2021/12/02 12:21:56;;;;;;;;;;;;;;;22.95;25.47;97152.28;5036318;28;956;-77
2021/12/02 12:24:37;;;;;;;;;;;;;;;22.61;25.80;97156.97;4996704;28;1047;-77
2021/12/02 12:27:12;;;;;;;;;;;;;;;22.14;26.26;97165.13;4996406;28;1012;-77
2021/12/02 12:29:38;;;;;;;;;;;;;;;22.11;26.57;97164.00;4998656;28;1370;-77
2021/12/02 12:32:08;;;;;;;;;;;;;;;22.52;26.11;97159.00;5016635;28;1430;-76
2021/12/02 12:34:59;;;;;;;;;;;;;;;22.72;25.93;97167.84;5012551;28;1446;-77
2021/12/02 12:37:23;;;;;;;;;;;;;;;22.45;26.20;97159.34;4996724;28;1187;-76
2021/12/02 12:40:06;;;;;;;;;;;;;;;22.30;25.93;97148.59;5014779;28;1959;-76
2021/12/02 12:42:31;;;;;;;;;;;;;;;22.38;25.89;97148.28;5027790;28;925;-77
2021/12/02 12:44:58;;;;;;;;;;;;;;;22.38;26.69;97151.13;5015417;28;977;-77
2021/12/02 12:47:42;;;;;;;;;;;;;;;22.75;26.05;97138.56;4977409;28;990;-77
2021/12/02 12:50:22;;;;;;;;;;;;;;;22.88;25.67;97130.66;4976481;28;1017;-76
2021/12/02 12:53:06;;;;;;;;;;;;;;;22.41;26.11;97147.34;4976549;28;985;-77
2021/12/02 12:55:32;;;;;;;;;;;;;;;22.54;25.91;97150.84;4976381;28;969;-77
2021/12/02 12:58:11;;;;;;;;;;;;;;;22.21;26.37;97145.75;4976310;28;961;-76
2021/12/02 13:00:41;;;;;;;;;;;;;;;22.72;25.87;97145.16;4976762;28;2038;-77
2021/12/02 13:06:18;;;;;;;;;;;;;;;22.80;25.51;97154.94;4913302;29;1037;-76
2021/12/02 13:08:47;;;;;;;;;;;;;;;22.29;26.15;97155.53;4917899;29;1456;-77
2021/12/02 13:11:39;;;;;;;;;;;;;;;22.28;26.35;97151.13;4863928;29;1011;-75
2021/12/02 13:14:04;;;;;;;;;;;;;;;22.61;26.38;97148.47;4830626;29;1117;-77
2021/12/02 13:16:30;;;;;;;;;;;;;;;22.90;25.53;97157.78;4826609;29;1016;-77
2021/12/02 13:18:59;;;;;;;;;;;;;;;22.48;25.94;97164.84;4812581;29;2014;-77